createdAt,value
2022-08-28T00:02:09.434Z,23.68
2022-08-28T00:05:14.018Z,23.70
2022-08-28T00:08:17.292Z,23.76
2022-08-28T00:11:21.241Z,23.91
2022-08-28T00:14:25.243Z,24.24
2022-08-28T00:17:28.277Z,24.23
2022-08-28T00:20:32.575Z,24.42
2022-08-28T00:23:42.686Z,24.37
2022-08-28T00:27:04.922Z,24.37
2022-08-28T00:30:08.533Z,24.45
2022-08-28T00:33:18.272Z,24.39
2022-08-28T00:36:21.167Z,24.50
2022-08-28T00:39:23.809Z,24.57
2022-08-28T00:42:27.593Z,24.50
2022-08-28T00:45:35.973Z,24.29
2022-08-28T00:48:41.981Z,24.22
2022-08-28T00:52:08.201Z,24.04
2022-08-28T00:55:17.806Z,24.16
2022-08-28T00:58:20.425Z,24.17
2022-08-28T01:01:24.285Z,23.93
2022-08-28T01:04:29.881Z,24.00
2022-08-28T01:07:32.813Z,23.99
2022-08-28T01:10:35.536Z,23.97
2022-08-28T01:13:40.265Z,23.94
2022-08-28T01:16:44.215Z,23.81
2022-08-28T01:19:57.309Z,23.77
2022-08-28T01:23:03.036Z,23.66
2022-08-28T01:26:08.175Z,23.75
2022-08-28T01:29:14.929Z,23.67
2022-08-28T01:32:27.993Z,23.66
2022-08-28T01:35:34.878Z,23.57
2022-08-28T01:38:41.462Z,23.36
2022-08-28T01:41:47.965Z,23.16
2022-08-28T01:44:52.834Z,23.12
2022-08-28T01:47:55.405Z,23.11
2022-08-28T01:50:58.750Z,23.00
2022-08-28T01:54:04.264Z,23.12
2022-08-28T01:57:07.851Z,22.99
2022-08-28T02:00:11.364Z,22.96
2022-08-28T02:03:14.960Z,22.94
2022-08-28T02:06:17.926Z,22.86
2022-08-28T02:09:20.964Z,22.88
2022-08-28T02:12:24.006Z,22.80
2022-08-28T02:15:28.315Z,22.64
2022-08-28T02:18:31.252Z,22.46
2022-08-28T02:21:35.554Z,22.56
2022-08-28T02:24:38.423Z,22.52
2022-08-28T02:27:41.424Z,22.51
2022-08-28T02:30:44.332Z,22.57
2022-08-28T02:33:47.436Z,22.64
2022-08-28T02:36:50.519Z,22.22
2022-08-28T02:39:57.321Z,22.13
2022-08-28T02:43:00.356Z,22.38
2022-08-28T02:46:04.706Z,22.37
2022-08-28T02:49:07.672Z,22.39
2022-08-28T02:52:11.107Z,22.50
2022-08-28T02:55:17.408Z,22.48
2022-08-28T02:58:20.326Z,22.46
2022-08-28T03:01:23.723Z,22.46
2022-08-28T03:04:26.503Z,22.43
2022-08-28T03:07:29.406Z,22.38
2022-08-28T03:10:31.880Z,22.43
2022-08-28T03:13:35.398Z,22.35
2022-08-28T03:16:38.012Z,22.38
2022-08-28T03:19:40.880Z,22.13
2022-08-28T03:23:02.030Z,22.01
2022-08-28T03:26:14.424Z,22.02
2022-08-28T03:29:16.962Z,22.10
2022-08-28T03:32:19.950Z,22.10
2022-08-28T03:35:22.711Z,22.00
2022-08-28T03:38:26.647Z,22.01
2022-08-28T03:41:31.102Z,22.04
2022-08-28T03:44:34.102Z,21.84
2022-08-28T03:47:38.360Z,22.10
2022-08-28T03:50:41.720Z,22.09
2022-08-28T03:53:45.389Z,22.04
2022-08-28T03:56:48.534Z,22.03
2022-08-28T03:59:53.623Z,22.02
2022-08-28T04:02:56.438Z,22.00
2022-08-28T04:05:59.835Z,21.95
2022-08-28T04:09:02.674Z,21.92
2022-08-28T04:12:06.904Z,21.84
2022-08-28T04:15:11.817Z,21.90
2022-08-28T04:18:15.035Z,22.04
2022-08-28T04:21:21.086Z,22.06
2022-08-28T04:24:24.131Z,21.98
2022-08-28T04:27:27.240Z,21.96
2022-08-28T04:30:30.268Z,22.02
2022-08-28T04:33:33.009Z,22.02
2022-08-28T04:36:36.095Z,21.97
2022-08-28T04:39:42.787Z,22.00
2022-08-28T04:42:45.753Z,22.03
2022-08-28T04:45:48.880Z,21.82
2022-08-28T04:48:52.206Z,21.96
2022-08-28T04:51:55.041Z,22.08
2022-08-28T04:54:58.001Z,22.54
2022-08-28T04:58:01.589Z,22.81
2022-08-28T05:01:14.291Z,23.10
2022-08-28T05:04:17.693Z,23.44
2022-08-28T05:07:20.531Z,23.55
2022-08-28T05:10:23.483Z,23.87
2022-08-28T05:13:30.485Z,24.03
2022-08-28T05:16:48.476Z,24.29
2022-08-28T05:19:52.318Z,24.64
2022-08-28T05:22:55.235Z,24.85
2022-08-28T05:25:58.303Z,25.08
2022-08-28T05:29:01.378Z,25.35
2022-08-28T05:32:04.878Z,25.41
2022-08-28T05:35:08.517Z,25.65
2022-08-28T05:38:13.570Z,25.86
2022-08-28T05:41:21.436Z,26.35
2022-08-28T05:44:24.420Z,26.13
2022-08-28T05:47:27.068Z,26.16
2022-08-28T05:50:31.369Z,26.59
2022-08-28T05:53:41.696Z,26.69
2022-08-28T05:56:45.525Z,26.63
2022-08-28T05:59:48.286Z,26.66
2022-08-28T06:02:51.219Z,27.23
2022-08-28T06:05:56.010Z,27.32
2022-08-28T06:09:20.455Z,27.50
2022-08-28T06:12:23.686Z,27.76
2022-08-28T06:15:26.960Z,28.04
2022-08-28T06:18:30.759Z,28.12
2022-08-28T06:21:33.616Z,27.70
2022-08-28T06:24:36.787Z,28.08
2022-08-28T06:27:39.592Z,28.74
2022-08-28T06:30:57.333Z,28.71
2022-08-28T06:34:06.451Z,28.67
2022-08-28T06:37:10.309Z,28.91
2022-08-28T06:40:13.647Z,28.20
2022-08-28T06:43:18.317Z,29.24
2022-08-28T06:46:21.968Z,29.86
2022-08-28T06:49:25.237Z,29.75
2022-08-28T06:52:27.840Z,29.83
2022-08-28T06:55:33.477Z,30.94
2022-08-28T06:58:40.792Z,30.33
2022-08-28T07:01:43.798Z,30.71
2022-08-28T07:04:46.580Z,30.89
2022-08-28T07:07:49.664Z,30.56
2022-08-28T07:10:53.880Z,30.94
2022-08-28T07:13:57.869Z,31.48
2022-08-28T07:17:00.594Z,31.35
2022-08-28T07:20:05.698Z,31.66
2022-08-28T07:23:09.759Z,32.51
2022-08-28T07:26:15.728Z,32.38
2022-08-28T07:29:19.288Z,32.89
2022-08-28T07:32:22.533Z,32.52
2022-08-28T07:35:25.058Z,32.76
2022-08-28T07:38:28.353Z,32.15
2022-08-28T07:41:33.092Z,32.69
2022-08-28T07:44:51.318Z,32.51
2022-08-28T07:47:53.997Z,33.13
2022-08-28T07:50:57.465Z,32.97
2022-08-28T07:54:01.853Z,33.05
2022-08-28T07:57:06.483Z,33.18
2022-08-28T08:00:11.002Z,33.05
2022-08-28T08:03:14.583Z,33.21
2022-08-28T08:06:17.571Z,33.69
2022-08-28T08:09:22.236Z,33.45
2022-08-28T08:12:29.373Z,33.13
2022-08-28T08:15:34.057Z,32.52
2022-08-28T08:18:38.605Z,31.74
2022-08-28T08:21:43.886Z,30.51
2022-08-28T08:24:47.294Z,30.98
2022-08-28T08:27:53.440Z,30.94
2022-08-28T08:31:09.392Z,32.67
2022-08-28T08:34:12.369Z,33.32
2022-08-28T08:37:16.000Z,33.98
2022-08-28T08:40:20.653Z,33.87
2022-08-28T08:43:24.477Z,34.23
2022-08-28T08:46:40.350Z,34.03
2022-08-28T08:49:54.613Z,34.17
2022-08-28T08:53:09.408Z,34.03
2022-08-28T08:56:16.906Z,34.06
2022-08-28T08:59:26.110Z,34.05
2022-08-28T09:02:38.814Z,34.51
2022-08-28T09:06:03.085Z,35.44
2022-08-28T09:09:32.391Z,33.90
2022-08-28T09:13:06.693Z,33.23
2022-08-28T09:16:35.371Z,33.55
2022-08-28T09:19:38.090Z,33.35
2022-08-28T09:22:46.311Z,34.79
2022-08-28T09:26:05.900Z,34.95
2022-08-28T09:29:19.038Z,34.63
2022-08-28T09:32:24.520Z,34.24
2022-08-28T09:35:33.534Z,34.15
2022-08-28T09:38:36.789Z,34.02
2022-08-28T09:42:10.393Z,34.77
2022-08-28T09:45:18.482Z,35.17
2022-08-28T09:48:33.162Z,34.75
2022-08-28T09:51:40.949Z,36.44
2022-08-28T09:54:45.885Z,36.15
2022-08-28T09:57:50.546Z,35.90
2022-08-28T10:01:07.155Z,35.14
2022-08-28T10:04:16.788Z,35.53
2022-08-28T10:07:49.489Z,35.29
2022-08-28T10:10:57.375Z,34.84
2022-08-28T10:14:12.417Z,33.80
2022-08-28T10:17:52.561Z,34.26
2022-08-28T10:21:26.211Z,34.88
2022-08-28T10:25:05.854Z,34.37
2022-08-28T10:28:33.960Z,35.62
2022-08-28T10:31:45.207Z,35.42
2022-08-28T10:35:12.062Z,34.54
2022-08-28T10:38:19.194Z,35.07
2022-08-28T10:41:25.939Z,34.80
2022-08-28T10:44:54.807Z,35.31
2022-08-28T10:48:05.315Z,35.21
2022-08-28T10:51:16.413Z,35.65
2022-08-28T10:54:32.370Z,36.32
2022-08-28T10:57:41.585Z,36.01
2022-08-28T11:00:45.821Z,34.67
2022-08-28T11:03:51.287Z,35.06
2022-08-28T11:07:00.586Z,34.71
2022-08-28T11:10:17.601Z,34.69
2022-08-28T11:13:39.093Z,34.38
2022-08-28T11:16:46.548Z,33.93
2022-08-28T11:20:03.628Z,34.05
2022-08-28T11:23:17.151Z,33.31
2022-08-28T11:26:41.587Z,34.02
2022-08-28T11:30:09.506Z,32.51
2022-08-28T11:33:34.032Z,33.99
2022-08-28T11:36:37.449Z,34.15
2022-08-28T11:39:41.108Z,34.17
2022-08-28T11:42:51.006Z,33.10
2022-08-28T11:45:54.930Z,34.02
2022-08-28T11:49:00.560Z,33.54
2022-08-28T11:52:37.959Z,33.96
2022-08-28T11:56:10.500Z,33.79
2022-08-28T12:00:01.649Z,34.31
2022-08-28T12:03:12.818Z,34.21
2022-08-28T12:06:16.142Z,34.77
2022-08-28T12:09:18.764Z,35.32
2022-08-28T12:12:22.429Z,34.45
2022-08-28T12:15:29.818Z,34.20
2022-08-28T12:18:42.985Z,32.86
2022-08-28T12:21:47.432Z,32.94
2022-08-28T12:25:23.228Z,33.06
2022-08-28T12:28:45.496Z,32.76
2022-08-28T12:32:11.554Z,32.54
2022-08-28T12:35:16.940Z,32.30
2022-08-28T12:38:22.542Z,32.03
2022-08-28T12:41:27.115Z,32.42
2022-08-28T12:44:33.429Z,31.68
2022-08-28T12:47:38.991Z,31.72
2022-08-28T12:50:42.047Z,31.51
2022-08-28T12:53:50.718Z,32.03
2022-08-28T12:56:53.651Z,32.26
2022-08-28T13:00:09.924Z,32.54
2022-08-28T13:03:13.956Z,32.86
2022-08-28T13:06:26.296Z,32.36
2022-08-28T13:13:54.782Z,32.88
2022-08-28T13:16:57.786Z,32.64
2022-08-28T13:20:07.681Z,32.29
2022-08-28T13:23:28.694Z,32.58
2022-08-28T13:26:34.082Z,33.19
2022-08-28T13:29:40.379Z,32.71
2022-08-28T13:33:21.754Z,32.48
2022-08-28T13:36:26.311Z,32.40
2022-08-28T13:39:32.166Z,32.79
2022-08-28T13:43:32.917Z,32.69
2022-08-28T13:47:16.829Z,32.82
2022-08-28T13:50:19.974Z,32.58
2022-08-28T13:53:22.758Z,32.96
2022-08-28T13:56:27.259Z,32.39
2022-08-28T13:59:46.191Z,32.07
2022-08-28T14:03:09.269Z,31.98
2022-08-28T14:06:16.938Z,31.79
2022-08-28T14:09:20.007Z,31.71
2022-08-28T14:12:27.797Z,32.13
2022-08-28T14:15:39.163Z,31.87
2022-08-28T14:18:42.180Z,32.42
2022-08-28T14:21:44.970Z,31.88
2022-08-28T14:24:47.856Z,32.09
2022-08-28T14:27:50.749Z,32.08
2022-08-28T14:30:53.840Z,31.49
2022-08-28T14:33:57.560Z,31.34
2022-08-28T14:37:01.813Z,31.16
2022-08-28T14:40:15.572Z,31.30
2022-08-28T14:43:22.530Z,31.34
2022-08-28T14:46:31.253Z,30.98
2022-08-28T14:49:34.437Z,31.27
2022-08-28T14:52:38.923Z,31.46
2022-08-28T14:55:44.219Z,31.34
2022-08-28T14:58:47.253Z,31.43
2022-08-28T15:01:52.495Z,31.15
2022-08-28T15:04:55.108Z,30.84
2022-08-28T15:07:58.209Z,31.02
2022-08-28T15:11:07.109Z,31.16
2022-08-28T15:14:12.290Z,31.15
2022-08-28T15:17:15.059Z,30.92
2022-08-28T15:20:19.104Z,30.98
2022-08-28T15:23:22.658Z,30.49
2022-08-28T15:26:54.118Z,30.78
2022-08-28T15:30:05.143Z,30.79
2022-08-28T15:33:09.209Z,30.97
2022-08-28T15:36:21.038Z,30.45
2022-08-28T15:40:18.089Z,30.56
2022-08-28T15:43:21.436Z,30.78
2022-08-28T15:46:24.222Z,30.66
2022-08-28T15:49:36.108Z,30.53
2022-08-28T15:52:41.857Z,30.68
2022-08-28T15:55:47.064Z,30.62
2022-08-28T15:58:52.450Z,30.47
2022-08-28T16:01:56.137Z,30.50
2022-08-28T16:05:00.407Z,29.95
2022-08-28T16:08:03.405Z,29.90
2022-08-28T16:11:06.523Z,29.55
2022-08-28T16:14:09.693Z,29.43
2022-08-28T16:17:12.649Z,29.41
2022-08-28T16:20:15.742Z,29.65
2022-08-28T16:23:18.709Z,29.50
2022-08-28T16:26:21.569Z,29.54
2022-08-28T16:29:24.435Z,29.34
2022-08-28T16:32:27.589Z,29.45
2022-08-28T16:35:56.919Z,28.95
2022-08-28T16:39:26.184Z,28.86
2022-08-28T16:42:34.198Z,28.86
2022-08-28T16:45:46.658Z,28.89
2022-08-28T16:48:51.450Z,28.96
2022-08-28T16:52:14.340Z,28.93
2022-08-28T16:55:17.483Z,28.59
2022-08-28T16:58:20.607Z,28.62
2022-08-28T17:01:25.917Z,28.66
2022-08-28T17:04:28.654Z,28.27
2022-08-28T17:07:31.633Z,28.17
2022-08-28T17:10:35.803Z,28.10
2022-08-28T17:13:39.552Z,28.15
2022-08-28T17:16:42.173Z,28.00
2022-08-28T17:19:45.176Z,27.80
2022-08-28T17:22:47.922Z,27.92
2022-08-28T17:25:51.029Z,27.84
2022-08-28T17:28:53.756Z,27.72
2022-08-28T17:31:56.811Z,27.78
2022-08-28T17:34:59.969Z,27.63
2022-08-28T17:38:03.476Z,27.57
2022-08-28T17:41:06.556Z,27.70
2022-08-28T17:44:10.400Z,27.57
2022-08-28T17:47:13.205Z,27.46
2022-08-28T17:50:16.491Z,27.48
2022-08-28T17:53:19.756Z,27.20
2022-08-28T17:56:22.715Z,27.00
2022-08-28T17:59:38.708Z,27.08
2022-08-28T18:02:42.227Z,27.23
2022-08-28T18:05:45.756Z,27.17
2022-08-28T18:08:48.609Z,27.36
2022-08-28T18:11:52.664Z,27.30
2022-08-28T18:14:55.461Z,27.25
2022-08-28T18:17:58.674Z,27.20
2022-08-28T18:21:02.508Z,27.04
2022-08-28T18:24:10.180Z,26.93
2022-08-28T18:27:14.285Z,27.11
2022-08-28T18:30:17.279Z,27.11
2022-08-28T18:33:23.954Z,27.17
2022-08-28T18:36:27.148Z,27.21
2022-08-28T18:39:30.115Z,27.02
2022-08-28T18:42:33.927Z,27.17
2022-08-28T18:45:37.089Z,27.19
2022-08-28T18:48:41.612Z,27.20
2022-08-28T18:51:45.073Z,27.13
2022-08-28T18:54:49.392Z,27.01
2022-08-28T18:57:53.034Z,26.85
2022-08-28T19:00:57.592Z,26.79
2022-08-28T19:04:00.305Z,26.87
2022-08-28T19:07:03.980Z,26.78
2022-08-28T19:10:22.671Z,26.80
2022-08-28T19:13:31.179Z,26.65
2022-08-28T19:16:35.311Z,26.68
2022-08-28T19:19:38.787Z,26.62
2022-08-28T19:22:42.098Z,26.52
2022-08-28T19:25:48.437Z,26.59
2022-08-28T19:28:51.956Z,26.58
2022-08-28T19:31:54.947Z,26.51
2022-08-28T19:35:01.988Z,26.37
2022-08-28T19:38:05.077Z,26.36
2022-08-28T19:41:10.425Z,26.32
2022-08-28T19:44:13.274Z,26.28
2022-08-28T19:47:15.974Z,26.31
2022-08-28T19:50:20.404Z,26.35
2022-08-28T19:53:23.009Z,26.21
2022-08-28T19:56:31.601Z,26.25
2022-08-28T19:59:35.271Z,25.94
2022-08-28T20:02:38.329Z,26.04
2022-08-28T20:05:41.498Z,26.18
2022-08-28T20:08:44.469Z,26.10
2022-08-28T20:11:47.747Z,26.09
2022-08-28T20:14:50.828Z,25.96
2022-08-28T20:17:53.756Z,25.93
2022-08-28T20:20:56.390Z,25.78
2022-08-28T20:23:59.333Z,25.83
2022-08-28T20:27:02.006Z,25.63
2022-08-28T20:30:10.535Z,25.48
2022-08-28T20:33:13.886Z,25.54
2022-08-28T20:36:21.143Z,25.38
2022-08-28T20:39:25.484Z,25.24
2022-08-28T20:42:31.672Z,25.16
2022-08-28T20:45:54.964Z,25.08
2022-08-28T20:49:00.556Z,24.98
2022-08-28T20:52:04.729Z,24.88
2022-08-28T20:55:08.800Z,25.02
2022-08-28T20:58:13.219Z,24.88
2022-08-28T21:01:16.425Z,24.83
2022-08-28T21:04:19.526Z,24.93
2022-08-28T21:07:25.253Z,24.80
2022-08-28T21:10:28.009Z,24.73
2022-08-28T21:13:31.721Z,24.73
2022-08-28T21:16:36.378Z,24.60
2022-08-28T21:19:40.739Z,24.58
2022-08-28T21:22:43.615Z,24.32
2022-08-28T21:25:46.631Z,24.53
2022-08-28T21:28:49.536Z,24.25
2022-08-28T21:31:53.348Z,24.28
2022-08-28T21:34:56.664Z,24.19
2022-08-28T21:37:59.681Z,24.09
2022-08-28T21:41:09.344Z,24.22
2022-08-28T21:44:12.469Z,24.30
2022-08-28T21:47:15.682Z,24.30
2022-08-28T21:50:18.936Z,24.29
2022-08-28T21:53:21.950Z,24.22
2022-08-28T21:56:27.982Z,24.30
2022-08-28T21:59:38.015Z,24.07
2022-08-28T22:02:41.295Z,23.91
2022-08-28T22:05:45.675Z,23.98
2022-08-28T22:08:51.544Z,23.91
2022-08-28T22:11:54.813Z,23.84
2022-08-28T22:14:57.492Z,23.77
2022-08-28T22:18:00.790Z,23.75
2022-08-28T22:21:23.605Z,23.75
2022-08-28T22:24:26.754Z,23.76
2022-08-28T22:27:31.974Z,23.75
2022-08-28T22:30:35.413Z,23.71
2022-08-28T22:33:39.587Z,23.63
2022-08-28T22:36:42.600Z,23.48
2022-08-28T22:39:45.175Z,23.63
2022-08-28T22:42:50.519Z,23.60
2022-08-28T22:45:53.496Z,23.43
2022-08-28T22:48:56.818Z,23.43
2022-08-28T22:51:59.528Z,23.39
2022-08-28T22:55:03.607Z,23.35
2022-08-28T22:58:10.912Z,23.28
2022-08-28T23:01:19.427Z,23.10
2022-08-28T23:04:22.258Z,23.12
2022-08-28T23:07:25.421Z,23.17
2022-08-28T23:10:48.384Z,23.30
2022-08-28T23:13:51.140Z,23.36
2022-08-28T23:16:55.809Z,23.11
2022-08-28T23:19:58.942Z,23.06
2022-08-28T23:23:01.686Z,23.06
2022-08-28T23:26:05.129Z,23.23
2022-08-28T23:29:08.339Z,23.15
2022-08-28T23:32:11.349Z,22.98
2022-08-28T23:35:14.814Z,23.06
2022-08-28T23:38:17.909Z,23.01
2022-08-28T23:41:21.107Z,22.85
2022-08-28T23:44:25.762Z,22.77
2022-08-28T23:47:29.200Z,22.87
2022-08-28T23:50:32.420Z,22.72
2022-08-28T23:53:35.524Z,22.68
2022-08-28T23:56:38.551Z,22.63
2022-08-28T23:59:41.073Z,22.64
